Time;durP1;ratioP1;P1;durP2;ratioP2;P2;SDS_P1;SDS_P2;PMS_P1;PMS_P2;Temp;Humidity;BMP_temperature;BMP_pressure;BME280_temperature;BME280_humidity;BME280_pressure;Samples;Min_cycle;Max_cycle;Signal;HPM_P1;HPM_P2
2023/04/09 00:01:25;;;;;;;;;;;;;;;21.11;62.22;101372.09;7397215;19;1612;-48
2023/04/09 00:03:54;;;;;;;;;;;;;;;21.17;62.42;101368.88;7397237;19;1098;-47
2023/04/09 00:06:22;;;;;;;;;;;;;;;21.18;62.15;101394.81;7397180;19;1270;-47
2023/04/09 00:08:53;;;;;;;;;;;;;;;21.14;62.44;101367.31;7396399;19;1184;-47
2023/04/09 00:11:21;;;;;;;;;;;;;;;21.15;62.45;101376.22;7396771;19;1605;-47
2023/04/09 00:13:49;;;;;;;;;;;;;;;21.02;62.44;101369.25;7396571;19;1177;-48
2023/04/09 00:16:18;;;;;;;;;;;;;;;21.03;62.61;101378.19;7395896;19;1851;-48
2023/04/09 00:18:46;;;;;;;;;;;;;;;21.03;62.56;101368.28;7394915;19;1194;-48
2023/04/09 00:21:15;;;;;;;;;;;;;;;21.04;62.58;101364.59;7395488;19;1396;-48
2023/04/09 00:23:43;;;;;;;;;;;;;;;21.15;62.43;101376.22;7395840;19;1940;-47
2023/04/09 00:26:14;;;;;;;;;;;;;;;21.15;62.37;101370.84;7395595;19;1586;-48
2023/04/09 00:28:42;;;;;;;;;;;;;;;21.15;62.43;101381.59;7397438;19;1225;-48
2023/04/09 00:31:11;;;;;;;;;;;;;;;21.23;62.02;101374.59;7403200;19;1186;-48
2023/04/09 00:33:40;;;;;;;;;;;;;;;21.19;62.12;101372.31;7402470;19;1241;-48
2023/04/09 00:36:08;;;;;;;;;;;;;;;21.18;62.02;101373.28;7402191;19;1861;-48
2023/04/09 00:38:36;;;;;;;;;;;;;;;21.18;62.05;101376.81;7403667;19;1220;-48
2023/04/09 00:41:05;;;;;;;;;;;;;;;21.15;62.21;101376.22;7403230;19;1629;-48
2023/04/09 00:43:36;;;;;;;;;;;;;;;21.19;62.14;101366.94;7402305;19;1153;-48
2023/04/09 00:46:04;;;;;;;;;;;;;;;21.15;62.19;101370.84;7402182;19;1594;-48
2023/04/09 00:48:33;;;;;;;;;;;;;;;21.19;62.23;101383.06;7402299;19;1212;-48
2023/04/09 00:51:01;;;;;;;;;;;;;;;21.17;62.10;101382.31;7402391;19;1170;-49
2023/04/09 00:53:30;;;;;;;;;;;;;;;21.23;61.71;101379.13;7402527;19;1039;-48
2023/04/09 00:55:58;;;;;;;;;;;;;;;21.18;61.86;101376.81;7402279;19;1850;-48
2023/04/09 00:58:26;;;;;;;;;;;;;;;21.14;62.13;101385.31;7401103;19;1610;-48
2023/04/09 01:00:57;;;;;;;;;;;;;;;21.07;62.23;101393.06;7401532;19;1191;-48
2023/04/09 01:03:26;;;;;;;;;;;;;;;21.10;62.28;101376.66;7402362;19;1252;-48
2023/04/09 01:06:00;;;;;;;;;;;;;;;21.05;62.36;101371.69;7401294;19;1171;-47
2023/04/09 01:08:33;;;;;;;;;;;;;;;21.01;62.33;101367.56;7402209;19;1370;-48
2023/04/09 01:11:08;;;;;;;;;;;;;;;21.01;62.41;101370.25;7401679;19;1420;-48
2023/04/09 01:13:38;;;;;;;;;;;;;;;21.05;62.53;101387.81;7401457;19;1417;-48
2023/04/09 01:16:12;;;;;;;;;;;;;;;21.01;62.37;101364.03;7400808;19;1869;-48
2023/04/09 01:18:43;;;;;;;;;;;;;;;20.97;62.35;101362.56;7401156;19;1241;-48
2023/04/09 01:21:14;;;;;;;;;;;;;;;21.04;62.41;101375.34;7401388;19;1474;-48
2023/04/09 01:23:48;;;;;;;;;;;;;;;21.03;62.46;101381.72;7400150;19;1182;-48
2023/04/09 01:26:24;;;;;;;;;;;;;;;21.02;62.49;101374.63;7400859;19;1221;-48
2023/04/09 01:28:56;;;;;;;;;;;;;;;21.01;62.56;101381.00;7400852;19;1587;-48
2023/04/09 01:31:28;;;;;;;;;;;;;;;21.11;62.36;101386.44;7401370;19;1549;-47
2023/04/09 01:33:57;;;;;;;;;;;;;;;21.16;61.96;101369.88;7401233;19;1055;-47
2023/04/09 01:36:26;;;;;;;;;;;;;;;21.19;62.09;101361.56;7399972;19;1837;-48
2023/04/09 01:38:55;;;;;;;;;;;;;;;21.18;62.33;101363.38;7400776;19;1612;-48
2023/04/09 01:41:24;;;;;;;;;;;;;;;21.25;62.34;101361.00;7399086;19;1251;-48
2023/04/09 01:43:56;;;;;;;;;;;;;;;21.10;62.75;101365.03;7402174;19;1142;-47
2023/04/09 01:46:26;;;;;;;;;;;;;;;20.94;63.35;101373.59;7400967;19;1837;-48
2023/04/09 01:48:54;;;;;;;;;;;;;;;20.87;63.52;101367.91;7397990;19;1633;-48
2023/04/09 01:51:22;;;;;;;;;;;;;;;20.98;63.48;101380.41;7399903;19;1468;-48
2023/04/09 01:53:51;;;;;;;;;;;;;;;20.92;63.05;101360.28;7400532;19;1494;-48
2023/04/09 01:56:20;;;;;;;;;;;;;;;20.95;62.98;101354.66;7399742;19;1835;-48
2023/04/09 01:58:48;;;;;;;;;;;;;;;21.09;62.78;101366.00;7398812;19;1482;-48
2023/04/09 02:01:22;;;;;;;;;;;;;;;21.03;62.85;101370.13;7400215;19;1377;-47
2023/04/09 02:03:54;;;;;;;;;;;;;;;21.00;62.83;101349.72;7400294;19;1566;-48
2023/04/09 02:06:27;;;;;;;;;;;;;;;20.97;62.69;101354.50;7400288;19;1500;-47
2023/04/09 02:08:56;;;;;;;;;;;;;;;21.07;62.74;101374.25;7399798;19;1541;-48
2023/04/09 02:11:25;;;;;;;;;;;;;;;21.05;62.64;101342.09;7398790;19;1575;-48
2023/04/09 02:13:55;;;;;;;;;;;;;;;21.09;62.57;101358.81;7399895;19;1306;-48
2023/04/09 02:16:27;;;;;;;;;;;;;;;21.05;62.69;101357.38;7398531;19;1852;-48
2023/04/09 02:18:56;;;;;;;;;;;;;;;20.97;62.84;101355.38;7399008;19;1808;-48
2023/04/09 02:21:25;;;;;;;;;;;;;;;21.02;62.48;101341.50;7397910;19;1488;-47
2023/04/09 02:23:54;;;;;;;;;;;;;;;21.02;62.51;101339.66;7398302;19;1818;-48
2023/04/09 02:26:22;;;;;;;;;;;;;;;21.03;62.53;101357.53;7399095;19;1549;-48
2023/04/09 02:28:51;;;;;;;;;;;;;;;21.03;62.49;101360.22;7399636;19;1603;-48
2023/04/09 02:31:19;;;;;;;;;;;;;;;21.01;62.71;101353.28;7399541;19;1527;-48
2023/04/09 02:33:50;;;;;;;;;;;;;;;20.98;62.44;101359.75;7399511;19;1209;-48
2023/04/09 02:36:18;;;;;;;;;;;;;;;21.05;62.61;101363.63;7399151;19;1354;-48
2023/04/09 02:38:47;;;;;;;;;;;;;;;21.04;62.70;101359.22;7396869;19;1942;-48
2023/04/09 02:41:15;;;;;;;;;;;;;;;21.05;62.41;101350.16;7399153;19;1292;-48
2023/04/09 02:43:43;;;;;;;;;;;;;;;21.02;62.39;101357.66;7400269;19;1047;-48
2023/04/09 02:46:11;;;;;;;;;;;;;;;20.99;62.44;101377.59;7398486;19;1325;-47
2023/04/09 02:48:40;;;;;;;;;;;;;;;20.99;62.46;101382.09;7398734;19;1538;-48
2023/04/09 02:51:11;;;;;;;;;;;;;;;20.96;62.42;101375.16;7395573;19;1288;-48
2023/04/09 02:53:39;;;;;;;;;;;;;;;21.04;62.34;101369.97;7398337;19;1148;-48
2023/04/09 02:56:08;;;;;;;;;;;;;;;21.02;62.20;101363.88;7395988;19;1213;-48
2023/04/09 02:58:36;;;;;;;;;;;;;;;21.06;62.25;101351.00;7396702;19;1849;-47
2023/04/09 03:01:04;;;;;;;;;;;;;;;21.02;62.16;101363.88;7399003;19;1102;-48
2023/04/09 03:03:33;;;;;;;;;;;;;;;21.02;62.28;101382.69;7398166;19;1161;-48
2023/04/09 03:06:01;;;;;;;;;;;;;;;21.05;62.15;101379.75;7399035;19;1567;-48
2023/04/09 03:08:32;;;;;;;;;;;;;;;21.08;62.10;101375.09;7398935;19;1301;-48
2023/04/09 03:11:00;;;;;;;;;;;;;;;21.02;62.22;101377.31;7398675;19;1244;-48
2023/04/09 03:13:29;;;;;;;;;;;;;;;21.00;62.29;101384.66;7399796;19;1178;-48
2023/04/09 03:15:57;;;;;;;;;;;;;;;20.89;62.55;101375.81;7397582;19;1461;-48
2023/04/09 03:18:25;;;;;;;;;;;;;;;20.87;62.59;101381.34;7397245;19;1859;-48
2023/04/09 03:20:53;;;;;;;;;;;;;;;20.91;62.55;101385.47;7398841;19;1126;-47
2023/04/09 03:23:22;;;;;;;;;;;;;;;20.95;62.04;101370.78;7397690;19;1562;-48
2023/04/09 03:26:01;;;;;;;;;;;;;;;20.95;62.53;101375.28;7397724;19;1153;-48
2023/04/09 03:28:29;;;;;;;;;;;;;;;20.92;62.30;101378.25;7397107;19;1211;-48
2023/04/09 03:30:58;;;;;;;;;;;;;;;20.90;62.18;101374.84;7397847;19;1292;-48
2023/04/09 03:33:26;;;;;;;;;;;;;;;20.93;62.38;101380.81;7396240;19;1502;-48
2023/04/09 03:35:54;;;;;;;;;;;;;;;20.93;62.08;101382.63;7396911;19;1473;-48
2023/04/09 03:38:23;;;;;;;;;;;;;;;20.91;62.15;101385.47;7394982;19;1860;-48
2023/04/09 03:40:53;;;;;;;;;;;;;;;20.91;62.21;101388.16;7394694;19;2105;-48
2023/04/09 03:43:22;;;;;;;;;;;;;;;20.93;62.16;101385.31;7395122;19;1546;-48
2023/04/09 03:45:50;;;;;;;;;;;;;;;20.91;62.36;101380.09;7396527;19;1472;-48
2023/04/09 03:48:18;;;;;;;;;;;;;;;20.94;62.14;101387.03;7397809;19;1205;-48
2023/04/09 03:50:46;;;;;;;;;;;;;;;20.91;62.01;101390.84;7396239;19;1837;-48
2023/04/09 03:53:15;;;;;;;;;;;;;;;20.88;62.20;101401.88;7396746;19;1553;-48
2023/04/09 03:55:43;;;;;;;;;;;;;;;20.84;62.41;101412.03;7396192;19;1272;-48
2023/04/09 03:58:14;;;;;;;;;;;;;;;20.89;62.40;101397.31;7393973;19;1860;-49
2023/04/09 04:00:42;;;;;;;;;;;;;;;20.68;62.79;101400.03;7395575;19;1583;-48
2023/04/09 04:03:13;;;;;;;;;;;;;;;20.35;63.63;101423.38;7394760;19;1605;-48
2023/04/09 04:05:41;;;;;;;;;;;;;;;20.07;64.42;101422.97;7396412;19;1630;-48
2023/04/09 04:08:10;;;;;;;;;;;;;;;19.82;64.94;101414.25;7396460;19;1545;-48
2023/04/09 04:10:38;;;;;;;;;;;;;;;19.80;64.87;101416.22;7396877;19;1567;-48
2023/04/09 04:13:07;;;;;;;;;;;;;;;19.77;65.11;101416.44;7397410;19;1145;-47
2023/04/09 04:15:40;;;;;;;;;;;;;;;19.70;65.40;101415.22;7396221;19;1558;-47
2023/04/09 04:18:09;;;;;;;;;;;;;;;19.59;65.41;101421.44;7395233;19;1861;-49
2023/04/09 04:20:37;;;;;;;;;;;;;;;19.55;65.69;101421.81;7396478;19;1603;-48
2023/04/09 04:23:06;;;;;;;;;;;;;;;19.58;65.58;101427.81;7396175;19;1545;-48
2023/04/09 04:25:34;;;;;;;;;;;;;;;19.43;65.22;101420.97;7395997;19;1591;-48
2023/04/09 04:28:02;;;;;;;;;;;;;;;19.35;66.16;101420.72;7395367;19;1444;-48
2023/04/09 04:30:30;;;;;;;;;;;;;;;19.72;64.88;101424.03;7396635;19;1157;-47
2023/04/09 04:33:01;;;;;;;;;;;;;;;19.87;64.75;101411.19;7395456;19;1471;-47
2023/04/09 04:35:30;;;;;;;;;;;;;;;19.68;65.11;101423.41;7395561;19;1526;-48
2023/04/09 04:37:58;;;;;;;;;;;;;;;19.58;65.53;101424.28;7394686;19;1858;-48
2023/04/09 04:40:26;;;;;;;;;;;;;;;19.61;65.38;101418.66;7395556;19;1496;-47
2023/04/09 04:42:55;;;;;;;;;;;;;;;19.54;65.68;101428.19;7395700;19;1101;-48
2023/04/09 04:45:23;;;;;;;;;;;;;;;19.36;66.15;101422.44;7395094;19;1547;-47
2023/04/09 04:47:51;;;;;;;;;;;;;;;19.77;65.43;101421.81;7394451;19;1272;-48
2023/04/09 04:50:22;;;;;;;;;;;;;;;20.15;65.00;101420.50;7395036;19;1587;-47
2023/04/09 04:52:50;;;;;;;;;;;;;;;20.06;65.15;101424.81;7394059;19;1474;-48
2023/04/09 04:55:18;;;;;;;;;;;;;;;19.99;65.43;101420.06;7394545;19;1556;-47
2023/04/09 04:57:47;;;;;;;;;;;;;;;20.32;64.48;101423.63;7393067;19;1855;-48
2023/04/09 05:00:16;;;;;;;;;;;;;;;20.30;63.85;101429.13;7394457;19;1305;-47
2023/04/09 05:02:44;;;;;;;;;;;;;;;20.11;63.81;101416.38;7394284;19;1187;-47
2023/04/09 05:05:12;;;;;;;;;;;;;;;20.03;64.52;101424.19;7394084;19;1639;-47
2023/04/09 05:07:43;;;;;;;;;;;;;;;20.02;64.83;101417.16;7394384;19;1917;-47
2023/04/09 05:10:11;;;;;;;;;;;;;;;20.49;63.98;101415.00;7394729;19;1291;-47
2023/04/09 05:12:40;;;;;;;;;;;;;;;21.13;62.40;101415.84;7395927;19;1220;-47
2023/04/09 05:15:08;;;;;;;;;;;;;;;21.57;61.29;101413.84;7397672;19;1492;-47
2023/04/09 05:17:37;;;;;;;;;;;;;;;21.67;61.00;101430.84;7401441;19;1849;-48
2023/04/09 05:20:05;;;;;;;;;;;;;;;21.69;60.77;101406.50;7401611;19;1525;-48
2023/04/09 05:22:35;;;;;;;;;;;;;;;21.80;60.98;101415.28;7402623;19;1491;-48
2023/04/09 05:25:06;;;;;;;;;;;;;;;21.79;60.89;101432.44;7402111;19;1213;-48
2023/04/09 05:27:34;;;;;;;;;;;;;;;21.79;60.79;101432.44;7402634;19;1109;-48
2023/04/09 05:30:03;;;;;;;;;;;;;;;21.75;60.84;101427.47;7401996;19;1542;-48
2023/04/09 05:32:31;;;;;;;;;;;;;;;21.68;61.05;101405.63;7399992;19;1637;-49
2023/04/09 05:34:59;;;;;;;;;;;;;;;21.67;60.82;101425.47;7401665;19;1283;-47
2023/04/09 05:37:27;;;;;;;;;;;;;;;21.87;60.41;101423.69;7402250;19;1946;-48
2023/04/09 05:39:56;;;;;;;;;;;;;;;21.96;60.54;101428.22;7398660;19;1461;-48
2023/04/09 05:42:27;;;;;;;;;;;;;;;22.00;60.21;101421.59;7399973;19;1471;-48
2023/04/09 05:44:55;;;;;;;;;;;;;;;22.05;60.33;101418.47;7400532;19;1271;-48
2023/04/09 05:47:23;;;;;;;;;;;;;;;22.14;60.75;101420.31;7400122;19;1194;-48
2023/04/09 05:49:51;;;;;;;;;;;;;;;22.09;59.74;101425.28;7401230;19;1559;-48
2023/04/09 05:52:20;;;;;;;;;;;;;;;22.15;60.03;101408.56;7401563;19;1039;-48
2023/04/09 05:54:48;;;;;;;;;;;;;;;22.31;59.98;101412.56;7402310;19;1174;-49
2023/04/09 05:57:16;;;;;;;;;;;;;;;22.26;60.42;101420.22;7400196;19;1469;-48
2023/04/09 05:59:47;;;;;;;;;;;;;;;22.05;59.89;101416.63;7398413;19;1865;-49
2023/04/09 06:02:15;;;;;;;;;;;;;;;21.97;59.37;101429.09;7401181;19;1550;-49
2023/04/09 06:04:44;;;;;;;;;;;;;;;21.90;59.33;101430.63;7400046;19;1613;-48
2023/04/09 06:07:12;;;;;;;;;;;;;;;21.98;58.83;101436.16;7400873;19;1138;-48
2023/04/09 06:09:42;;;;;;;;;;;;;;;22.02;58.99;101413.34;7400875;19;1115;-48
2023/04/09 06:12:11;;;;;;;;;;;;;;;22.03;59.17;101439.31;7396128;19;1439;-47
2023/04/09 06:14:39;;;;;;;;;;;;;;;22.07;59.36;101438.03;7400284;19;1428;-47
2023/04/09 06:17:10;;;;;;;;;;;;;;;22.02;59.50;101413.34;7399328;19;1592;-47
2023/04/09 06:19:38;;;;;;;;;;;;;;;22.06;59.38;101417.47;7398191;19;1840;-47
2023/04/09 06:22:06;;;;;;;;;;;;;;;21.99;59.54;101419.03;7400150;19;1125;-47
2023/04/09 06:24:35;;;;;;;;;;;;;;;21.49;60.85;101427.09;7399016;19;1487;-47
2023/04/09 06:27:03;;;;;;;;;;;;;;;21.36;61.67;101433.53;7397472;19;1237;-48
2023/04/09 06:29:31;;;;;;;;;;;;;;;21.59;60.68;101423.47;7398954;19;1332;-48
2023/04/09 06:32:00;;;;;;;;;;;;;;;21.77;60.46;101425.50;7398703;19;1458;-47
2023/04/09 06:34:30;;;;;;;;;;;;;;;21.84;60.47;101422.13;7399011;19;1460;-47
2023/04/09 06:36:59;;;;;;;;;;;;;;;21.77;60.84;101431.72;7399114;19;1206;-48
2023/04/09 06:39:27;;;;;;;;;;;;;;;21.79;60.41;101429.75;7396735;19;1855;-48
2023/04/09 06:41:55;;;;;;;;;;;;;;;21.82;60.78;101420.53;7398598;19;1177;-48
2023/04/09 06:44:24;;;;;;;;;;;;;;;21.83;60.83;101433.88;7397305;19;1500;-48
2023/04/09 06:46:52;;;;;;;;;;;;;;;21.81;60.66;101422.38;7397311;19;1484;-48
2023/04/09 06:49:20;;;;;;;;;;;;;;;21.84;60.61;101432.03;7398120;19;1505;-48
2023/04/09 06:51:52;;;;;;;;;;;;;;;21.82;60.58;101415.16;7398773;19;1625;-47
2023/04/09 06:54:20;;;;;;;;;;;;;;;21.90;60.44;101423.38;7398471;19;1499;-48
2023/04/09 06:56:48;;;;;;;;;;;;;;;21.80;60.61;101434.13;7397797;19;1223;-47
2023/04/09 06:59:17;;;;;;;;;;;;;;;21.82;60.66;101424.06;7395623;19;1861;-47
2023/04/09 07:01:46;;;;;;;;;;;;;;;21.92;60.62;101431.34;7397132;19;1914;-47
2023/04/09 07:04:14;;;;;;;;;;;;;;;21.99;60.49;101419.03;7398058;19;1275;-48
2023/04/09 07:06:43;;;;;;;;;;;;;;;21.98;60.57;101425.38;7399134;19;1173;-48
2023/04/09 07:09:13;;;;;;;;;;;;;;;22.04;60.63;101419.44;7398068;19;1264;-48
2023/04/09 07:11:42;;;;;;;;;;;;;;;22.05;60.72;101418.47;7398829;19;1273;-47
2023/04/09 07:14:10;;;;;;;;;;;;;;;22.03;60.25;101415.06;7396890;19;1295;-48
2023/04/09 07:16:38;;;;;;;;;;;;;;;21.99;60.23;101408.25;7396778;19;1207;-48
2023/04/09 07:19:07;;;;;;;;;;;;;;;22.10;60.21;101421.56;7396990;19;1867;-48
2023/04/09 07:21:35;;;;;;;;;;;;;;;22.16;60.60;101426.44;7397056;19;1994;-49
2023/04/09 07:24:04;;;;;;;;;;;;;;;21.53;61.48;101423.16;7395647;19;1223;-49
2023/04/09 07:26:36;;;;;;;;;;;;;;;21.00;57.64;101429.53;7397278;19;1365;-46
2023/04/09 07:29:04;;;;;;;;;;;;;;;20.73;59.73;101430.94;7396966;19;1159;-48
2023/04/09 07:31:33;;;;;;;;;;;;;;;20.60;61.42;101425.72;7396732;19;1433;-48
2023/04/09 07:34:01;;;;;;;;;;;;;;;20.35;61.41;101416.19;7397342;19;1367;-48
2023/04/09 07:36:30;;;;;;;;;;;;;;;20.41;60.27;101436.28;7396240;19;1454;-48
2023/04/09 07:38:58;;;;;;;;;;;;;;;20.27;59.54;101432.94;7393699;19;1847;-48
2023/04/09 07:41:27;;;;;;;;;;;;;;;20.25;58.34;101434.03;7397540;19;1644;-48
2023/04/09 07:43:58;;;;;;;;;;;;;;;20.26;57.11;101436.59;7396748;19;1036;-48
2023/04/09 07:46:26;;;;;;;;;;;;;;;20.21;57.05;101430.75;7396863;19;1328;-48
2023/04/09 07:48:54;;;;;;;;;;;;;;;20.20;57.05;101431.72;7396012;19;1492;-48
2023/04/09 07:51:22;;;;;;;;;;;;;;;20.06;57.35;101432.03;7396433;19;1173;-48
2023/04/09 07:53:50;;;;;;;;;;;;;;;20.02;57.76;101430.56;7394330;19;1438;-48
2023/04/09 07:56:19;;;;;;;;;;;;;;;19.95;57.30;101435.56;7396806;19;1296;-48
2023/04/09 07:58:48;;;;;;;;;;;;;;;19.89;57.62;101448.66;7394203;19;1858;-48
2023/04/09 08:01:20;;;;;;;;;;;;;;;19.81;58.01;101449.25;7396996;19;1217;-48
2023/04/09 08:03:48;;;;;;;;;;;;;;;19.73;55.36;101440.97;7397233;19;1562;-49
2023/04/09 08:06:16;;;;;;;;;;;;;;;19.68;53.73;101435.97;7395479;19;1465;-48
2023/04/09 08:08:45;;;;;;;;;;;;;;;19.74;55.64;101448.91;7393898;19;1409;-48
2023/04/09 08:11:13;;;;;;;;;;;;;;;19.70;54.19;101451.94;7390933;19;1288;-48
2023/04/09 08:13:42;;;;;;;;;;;;;;;19.65;54.23;101447.78;7392032;19;1264;-46
2023/04/09 08:16:10;;;;;;;;;;;;;;;19.53;53.27;101445.25;7388773;19;1218;-49
2023/04/09 08:18:41;;;;;;;;;;;;;;;19.50;54.67;101450.84;7391612;19;1851;-48
2023/04/09 08:21:09;;;;;;;;;;;;;;;19.57;53.26;101444.00;7386239;19;1341;-48
2023/04/09 08:23:37;;;;;;;;;;;;;;;19.62;51.48;101428.41;7390384;19;1575;-48
2023/04/09 08:26:06;;;;;;;;;;;;;;;19.58;50.86;101448.41;7391190;19;1288;-48
2023/04/09 08:28:34;;;;;;;;;;;;;;;19.57;52.10;101423.41;7394505;19;1508;-48
2023/04/09 08:31:02;;;;;;;;;;;;;;;19.47;52.59;101423.28;7392470;19;1227;-48
2023/04/09 08:33:31;;;;;;;;;;;;;;;19.45;52.83;101433.28;7395090;19;1263;-48
2023/04/09 08:36:02;;;;;;;;;;;;;;;19.39;52.43;101438.28;7394039;19;1284;-48
2023/04/09 08:38:30;;;;;;;;;;;;;;;19.39;53.06;101439.13;7394568;19;1848;-48
2023/04/09 08:40:58;;;;;;;;;;;;;;;19.53;53.11;101442.56;7394850;19;1151;-48
2023/04/09 08:43:29;;;;;;;;;;;;;;;19.59;52.31;101434.00;7394450;19;1499;-48
2023/04/09 08:45:58;;;;;;;;;;;;;;;19.44;51.45;101436.09;7394805;19;1248;-48
2023/04/09 08:48:27;;;;;;;;;;;;;;;19.37;50.95;101446.44;7393156;19;1543;-48
2023/04/09 08:50:55;;;;;;;;;;;;;;;19.32;50.63;101426.31;7396791;19;1489;-52
2023/04/09 08:53:27;;;;;;;;;;;;;;;19.38;50.84;101440.13;7401027;19;1518;-51
2023/04/09 08:55:55;;;;;;;;;;;;;;;19.46;51.50;101426.94;7400290;19;1202;-52
2023/04/09 08:58:23;;;;;;;;;;;;;;;19.41;51.41;101418.41;7398563;19;1267;-52
2023/04/09 09:00:52;;;;;;;;;;;;;;;19.39;52.19;101420.34;7397495;19;1849;-52
2023/04/09 09:03:20;;;;;;;;;;;;;;;19.38;51.70;101413.31;7401666;19;1429;-51
2023/04/09 09:05:48;;;;;;;;;;;;;;;19.50;50.79;101415.97;7401901;19;1530;-53
2023/04/09 09:08:29;;;;;;;;;;;;;;;19.44;48.77;101430.75;6877710;19;9999588;-49
2023/04/09 09:11:00;;;;;;;;;;;;;;;19.41;49.91;101428.28;7388663;19;1938;-49
2023/04/09 09:13:29;;;;;;;;;;;;;;;19.39;47.94;101417.69;7394683;19;1624;-48
2023/04/09 09:16:13;;;;;;;;;;;;;;;19.35;48.26;101413.53;7389845;19;1561;-48
2023/04/09 09:18:42;;;;;;;;;;;;;;;19.36;47.56;101428.66;7392191;19;1847;-48
2023/04/09 09:21:14;;;;;;;;;;;;;;;19.37;48.32;101411.56;7393751;19;1536;-48
2023/04/09 09:23:42;;;;;;;;;;;;;;;19.29;50.41;101416.69;7392697;19;1436;-48
2023/04/09 09:26:17;;;;;;;;;;;;;;;19.31;50.55;101405.88;7394844;19;1385;-47
2023/04/09 09:28:47;;;;;;;;;;;;;;;19.33;48.79;101410.13;7393967;19;1392;-47
2023/04/09 09:31:15;;;;;;;;;;;;;;;19.36;49.53;101415.25;7397803;19;1195;-47
2023/04/09 09:33:44;;;;;;;;;;;;;;;19.31;50.61;101404.03;7399659;19;1204;-47
2023/04/09 09:36:12;;;;;;;;;;;;;;;19.24;51.24;101416.22;7399752;19;1510;-47
2023/04/09 09:38:55;;;;;;;;;;;;;;;19.24;49.18;101424.28;7399378;19;1523;-47
2023/04/09 09:41:26;;;;;;;;;;;;;;;19.34;50.45;101409.16;7398510;19;1178;-47
2023/04/09 09:43:54;;;;;;;;;;;;;;;19.28;48.04;101421.22;7397663;19;1628;-47
2023/04/09 09:46:23;;;;;;;;;;;;;;;19.22;48.36;101415.50;7398642;19;1563;-47
2023/04/09 09:48:51;;;;;;;;;;;;;;;19.18;49.52;101419.38;7396829;19;1631;-47
2023/04/09 09:51:21;;;;;;;;;;;;;;;19.10;52.09;101413.75;7391776;19;1489;-50
2023/04/09 09:53:51;;;;;;;;;;;;;;;19.25;51.14;101425.97;7398048;19;1221;-51
2023/04/09 09:56:21;;;;;;;;;;;;;;;19.30;49.71;101410.38;7399412;19;991;-50
2023/04/09 09:58:56;;;;;;;;;;;;;;;19.23;47.00;101419.88;7397508;19;2220;-50
2023/04/09 10:01:26;;;;;;;;;;;;;;;19.20;46.43;101417.41;7395683;19;1608;-50
2023/04/09 10:03:54;;;;;;;;;;;;;;;19.23;48.57;101401.09;7398668;19;1459;-51
2023/04/09 10:06:22;;;;;;;;;;;;;;;19.13;50.27;101402.81;7398482;19;1236;-50
2023/04/09 10:08:52;;;;;;;;;;;;;;;19.25;48.47;101391.94;7398190;19;1166;-50
2023/04/09 10:11:22;;;;;;;;;;;;;;;19.36;45.49;101396.47;7398171;19;1495;-50
2023/04/09 10:13:57;;;;;;;;;;;;;;;19.21;44.63;101386.97;7398898;19;1210;-51
2023/04/09 10:16:25;;;;;;;;;;;;;;;19.30;46.63;101402.34;7397232;19;1317;-50
2023/04/09 10:18:54;;;;;;;;;;;;;;;19.30;46.47;101396.09;7397928;19;1475;-50
2023/04/09 10:21:28;;;;;;;;;;;;;;;19.37;48.24;101395.50;7396293;19;1849;-50
2023/04/09 10:23:57;;;;;;;;;;;;;;;19.31;44.39;101376.38;7398914;19;1487;-51
2023/04/09 10:26:26;;;;;;;;;;;;;;;19.09;43.85;101378.06;7396627;19;1426;-50
2023/04/09 10:29:10;;;;;;;;;;;;;;;19.11;43.40;101405.59;7398570;19;1109;-50
2023/04/09 10:31:53;;;;;;;;;;;;;;;19.01;44.01;101400.09;7396747;19;1253;-51
2023/04/09 10:34:23;;;;;;;;;;;;;;;18.98;43.42;101384.28;7397266;19;1351;-50
2023/04/09 10:36:53;;;;;;;;;;;;;;;19.13;44.45;101379.53;7398539;19;1237;-50
2023/04/09 10:39:21;;;;;;;;;;;;;;;19.12;43.81;101390.38;7396801;19;1834;-50
2023/04/09 10:41:51;;;;;;;;;;;;;;;19.18;44.39;101371.97;7396515;19;1544;-50
2023/04/09 10:44:26;;;;;;;;;;;;;;;19.00;45.14;101387.69;7397802;19;1222;-51
2023/04/09 10:46:55;;;;;;;;;;;;;;;19.44;46.37;101375.25;7397286;19;1532;-50
2023/04/09 10:49:23;;;;;;;;;;;;;;;20.32;45.51;101373.44;7395559;19;1504;-51
2023/04/09 10:51:55;;;;;;;;;;;;;;;20.56;46.02;101361.59;7397437;19;1288;-51
2023/04/09 10:54:47;;;;;;;;;;;;;;;20.10;47.85;101355.59;7397567;19;1578;-51
2023/04/09 10:57:20;;;;;;;;;;;;;;;19.90;48.18;101367.16;7397228;19;2046;-50
2023/04/09 10:59:51;;;;;;;;;;;;;;;20.24;48.45;101352.59;7394196;19;1875;-50
2023/04/09 11:02:43;;;;;;;;;;;;;;;20.69;47.69;101351.53;7396387;19;1571;-50
2023/04/09 11:05:19;;;;;;;;;;;;;;;21.14;47.28;101363.78;7396960;19;1219;-49
2023/04/09 11:07:51;;;;;;;;;;;;;;;21.22;47.37;101332.53;7397172;19;1884;-50
2023/04/09 11:10:20;;;;;;;;;;;;;;;21.30;47.51;101347.97;7396338;19;1459;-49
2023/04/09 11:12:48;;;;;;;;;;;;;;;21.32;48.07;101334.41;7397649;19;1055;-50
2023/04/09 11:15:20;;;;;;;;;;;;;;;21.30;48.32;101325.63;7395366;19;1955;-49
2023/04/09 11:17:48;;;;;;;;;;;;;;;21.29;48.33;101345.41;7397454;19;1623;-50
2023/04/09 11:20:18;;;;;;;;;;;;;;;21.35;48.78;101323.38;7394000;19;1846;-50
2023/04/09 11:22:47;;;;;;;;;;;;;;;21.36;48.76;101333.97;7398609;19;1194;-49
2023/04/09 11:25:20;;;;;;;;;;;;;;;21.36;49.11;101311.63;7397090;19;1349;-50
2023/04/09 11:27:48;;;;;;;;;;;;;;;21.40;49.26;101337.25;7395400;19;1278;-47
2023/04/09 11:30:17;;;;;;;;;;;;;;;21.37;49.52;101340.25;7396133;19;1538;-47
2023/04/09 11:32:48;;;;;;;;;;;;;;;21.39;49.96;101336.41;7394830;19;1247;-47
2023/04/09 11:35:16;;;;;;;;;;;;;;;21.39;50.02;101335.56;7396542;19;1256;-47
2023/04/09 11:37:45;;;;;;;;;;;;;;;21.55;50.26;101327.84;7395532;19;1226;-47
2023/04/09 11:40:18;;;;;;;;;;;;;;;21.63;50.37;101325.31;7395447;19;1846;-47
2023/04/09 11:42:47;;;;;;;;;;;;;;;21.38;51.03;101313.16;7395840;19;1163;-47
2023/04/09 11:45:16;;;;;;;;;;;;;;;21.36;51.53;101322.38;7396649;19;1657;-47
2023/04/09 11:47:48;;;;;;;;;;;;;;;21.45;51.84;101319.75;7395764;19;1487;-47
2023/04/09 11:50:16;;;;;;;;;;;;;;;21.55;51.63;101324.31;7395322;19;1450;-47
2023/04/09 11:52:46;;;;;;;;;;;;;;;21.44;51.86;101323.41;7395268;19;1455;-47
2023/04/09 11:55:24;;;;;;;;;;;;;;;21.42;51.94;101314.59;7393972;19;1234;-48
2023/04/09 11:57:53;;;;;;;;;;;;;;;21.35;52.19;101308.09;7394725;19;1526;-47
2023/04/09 12:00:23;;;;;;;;;;;;;;;21.53;51.71;101291.31;7395859;19;1855;-47
2023/04/09 12:03:02;;;;;;;;;;;;;;;21.56;51.30;101302.63;7394048;19;1436;-47
2023/04/09 12:05:31;;;;;;;;;;;;;;;21.58;50.55;101307.88;7395279;19;1265;-47
2023/04/09 12:08:00;;;;;;;;;;;;;;;21.36;50.01;101328.59;7395784;19;1550;-48
2023/04/09 12:10:29;;;;;;;;;;;;;;;21.43;49.53;101310.97;7395881;19;1209;-47
2023/04/09 12:13:02;;;;;;;;;;;;;;;21.53;49.10;101300.22;7396437;19;1227;-48
2023/04/09 12:15:33;;;;;;;;;;;;;;;21.66;49.41;101302.63;7394799;19;1336;-47
2023/04/09 12:18:04;;;;;;;;;;;;;;;21.81;49.22;101320.09;7395069;19;1493;-48
2023/04/09 12:20:34;;;;;;;;;;;;;;;21.71;50.04;101295.00;7394180;19;1854;-47
2023/04/09 12:23:04;;;;;;;;;;;;;;;21.77;50.10;101280.97;7395294;19;1582;-47
2023/04/09 12:25:32;;;;;;;;;;;;;;;21.67;50.61;101272.06;7393881;19;1490;-48
2023/04/09 12:28:01;;;;;;;;;;;;;;;21.22;51.65;101281.41;7394537;19;1322;-47
2023/04/09 12:30:29;;;;;;;;;;;;;;;20.77;52.30;101287.22;7393341;19;1600;-47
2023/04/09 12:32:57;;;;;;;;;;;;;;;20.50;52.93;101293.13;7393695;19;1174;-47
2023/04/09 12:35:28;;;;;;;;;;;;;;;20.29;53.69;101286.91;7393710;19;1415;-47
2023/04/09 12:37:58;;;;;;;;;;;;;;;20.11;54.01;101279.44;7395756;19;1500;-47
2023/04/09 12:40:26;;;;;;;;;;;;;;;20.04;54.85;101283.63;7394482;19;1860;-48
2023/04/09 12:42:54;;;;;;;;;;;;;;;20.09;54.68;101285.91;7394322;19;1167;-47
2023/04/09 12:45:23;;;;;;;;;;;;;;;20.04;54.91;101271.06;7395080;19;1532;-47
2023/04/09 12:47:51;;;;;;;;;;;;;;;19.92;55.00;101277.47;7393961;19;1517;-47
2023/04/09 12:50:19;;;;;;;;;;;;;;;19.83;55.37;101271.00;7394696;19;1549;-47
2023/04/09 12:52:50;;;;;;;;;;;;;;;19.99;55.13;101283.16;7394613;19;1658;-47
2023/04/09 12:55:19;;;;;;;;;;;;;;;20.05;54.76;101286.19;7394102;19;1637;-47
2023/04/09 12:57:47;;;;;;;;;;;;;;;19.83;55.63;101262.97;7393596;19;1597;-47
2023/04/09 13:00:16;;;;;;;;;;;;;;;19.86;55.53;101257.34;7392713;19;1881;-47